Time;durP1;ratioP1;P1;durP2;ratioP2;P2;SDS_P1;SDS_P2;PMS_P1;PMS_P2;Temp;Humidity;BMP_temperature;BMP_pressure;BME280_temperature;BME280_humidity;BME280_pressure;Samples;Min_cycle;Max_cycle;Signal;HPM_P1;HPM_P2
2023/06/30 00:01:22;;;;;;;2.53;2.33;;;21.90;96.20;;;;;;5094845;28;20479;-81
2023/06/30 00:03:50;;;;;;;2.43;2.23;;;21.90;96.30;;;;;;5094860;28;20447;-81
2023/06/30 00:06:17;;;;;;;2.90;2.27;;;21.80;96.50;;;;;;5094852;28;20470;-81
2023/06/30 00:08:44;;;;;;;2.63;2.43;;;21.80;96.70;;;;;;5094748;28;20463;-81
2023/06/30 00:11:11;;;;;;;3.20;2.90;;;21.80;96.80;;;;;;5094711;28;20482;-81
2023/06/30 00:13:38;;;;;;;2.93;2.40;;;21.70;96.80;;;;;;5094688;28;20455;-81
2023/06/30 00:16:04;;;;;;;2.77;2.50;;;21.70;97.00;;;;;;5094306;28;20446;-81
2023/06/30 00:18:31;;;;;;;2.57;2.40;;;21.70;97.10;;;;;;5094479;28;20471;-81
2023/06/30 00:21:00;;;;;;;3.40;2.63;;;21.70;97.00;;;;;;5094125;28;20471;-81
2023/06/30 00:23:27;;;;;;;2.90;2.43;;;21.70;97.10;;;;;;5094023;28;20544;-81
2023/06/30 00:25:54;;;;;;;2.50;2.30;;;21.70;97.10;;;;;;5094464;28;20506;-81
2023/06/30 00:28:20;;;;;;;3.53;3.23;;;21.60;97.30;;;;;;5094314;28;20498;-81
2023/06/30 00:30:47;;;;;;;4.03;2.90;;;21.60;97.50;;;;;;5094315;28;20447;-81
2023/06/30 00:33:14;;;;;;;6.00;3.00;;;21.60;97.70;;;;;;5094265;28;20460;-81
2023/06/30 00:35:41;;;;;;;2.80;2.60;;;21.50;97.70;;;;;;5094242;28;20455;-81
2023/06/30 00:38:09;;;;;;;2.77;2.57;;;21.50;98.00;;;;;;5093815;28;20991;-81
2023/06/30 00:40:36;;;;;;;2.50;2.30;;;21.40;98.00;;;;;;5093258;28;20942;-81
2023/06/30 00:43:02;;;;;;;2.90;2.50;;;21.40;98.20;;;;;;5094096;28;20893;-81
2023/06/30 00:45:29;;;;;;;2.87;2.67;;;21.30;98.20;;;;;;5094097;28;20443;-81
2023/06/30 00:47:56;;;;;;;2.23;2.03;;;21.30;98.60;;;;;;5094035;28;20468;-81
2023/06/30 00:50:23;;;;;;;2.77;2.50;;;21.20;98.80;;;;;;5093976;28;20451;-81
2023/06/30 00:52:50;;;;;;;2.50;2.30;;;21.20;99.10;;;;;;5094030;28;20439;-81
2023/06/30 00:55:19;;;;;;;2.73;2.57;;;21.10;98.90;;;;;;5093593;28;20459;-81
2023/06/30 00:57:46;;;;;;;5.57;3.17;;;21.10;99.00;;;;;;5093562;28;20454;-81
2023/06/30 01:00:13;;;;;;;2.30;2.20;;;21.00;99.00;;;;;;5093862;28;20470;-81
2023/06/30 01:02:52;;;;;;;2.90;2.63;;;21.00;99.30;;;;;;5093439;28;21032;-81
2023/06/30 01:05:25;;;;;;;2.33;2.13;;;20.90;99.60;;;;;;5093847;28;20428;-81
2023/06/30 01:08:00;;;;;;;2.80;2.57;;;20.90;99.70;;;;;;5093400;28;20471;-81
2023/06/30 01:10:30;;;;;;;2.73;2.53;;;20.90;99.70;;;;;;5093769;28;20435;-81
2023/06/30 01:12:58;;;;;;;3.37;3.00;;;20.80;99.70;;;;;;5093778;28;20435;-81
2023/06/30 01:15:25;;;;;;;2.57;2.37;;;20.80;99.80;;;;;;5093372;28;20537;-81
2023/06/30 01:17:56;;;;;;;3.13;2.30;;;20.80;99.80;;;;;;5093634;28;20471;-81
2023/06/30 01:20:24;;;;;;;3.43;3.13;;;20.90;99.90;;;;;;5093616;28;20432;-81
2023/06/30 01:22:54;;;;;;;2.40;2.20;;;20.80;99.90;;;;;;5093103;28;20491;-81
2023/06/30 01:25:25;;;;;;;3.40;2.67;;;20.80;99.90;;;;;;5094116;28;20440;-81
2023/06/30 01:27:54;;;;;;;3.43;2.17;;;20.80;99.90;;;;;;5093194;28;20463;-81
2023/06/30 01:30:22;;;;;;;3.20;2.90;;;20.70;99.90;;;;;;5093451;28;20435;-81
2023/06/30 01:32:50;;;;;;;3.87;2.73;;;20.70;99.90;;;;;;5093486;28;20844;-81
2023/06/30 01:35:17;;;;;;;2.90;2.57;;;20.70;99.90;;;;;;5093411;28;20451;-81
2023/06/30 01:37:44;;;;;;;3.23;2.67;;;20.70;99.90;;;;;;5093392;28;20443;-81
2023/06/30 01:40:11;;;;;;;6.13;2.23;;;20.70;99.90;;;;;;5093395;28;20439;-81
2023/06/30 01:42:40;;;;;;;2.97;2.70;;;20.70;99.90;;;;;;5093332;28;20483;-81
2023/06/30 01:45:10;;;;;;;4.73;2.70;;;20.60;99.90;;;;;;5093138;28;20895;-81
2023/06/30 01:47:37;;;;;;;2.30;2.10;;;20.60;99.90;;;;;;5093311;28;20443;-81
2023/06/30 01:50:06;;;;;;;5.90;2.63;;;20.60;99.90;;;;;;5093891;28;20454;-81
2023/06/30 01:52:33;;;;;;;2.40;2.30;;;20.60;99.90;;;;;;5097395;28;20443;-81
2023/06/30 01:54:59;;;;;;;3.73;3.37;;;20.60;99.90;;;;;;5097361;28;20454;-81
2023/06/30 01:57:26;;;;;;;3.33;2.37;;;20.50;99.90;;;;;;5097298;28;20447;-81
2023/06/30 01:59:53;;;;;;;2.87;2.67;;;20.50;99.90;;;;;;5097258;28;20451;-81
2023/06/30 02:02:21;;;;;;;2.00;1.90;;;20.50;99.90;;;;;;5097152;28;20487;-81
2023/06/30 02:04:48;;;;;;;2.70;2.40;;;20.60;99.90;;;;;;5097153;28;20458;-81
2023/06/30 02:07:15;;;;;;;4.07;3.17;;;20.50;99.90;;;;;;5097155;28;20439;-81
2023/06/30 02:09:41;;;;;;;2.20;2.00;;;20.40;99.90;;;;;;5097000;28;20472;-81
2023/06/30 02:12:09;;;;;;;3.07;2.87;;;20.40;99.90;;;;;;5096751;28;20439;-81
2023/06/30 02:14:36;;;;;;;3.27;2.97;;;20.40;99.90;;;;;;5096672;28;20448;-81
2023/06/30 02:17:03;;;;;;;8.27;2.90;;;20.30;99.90;;;;;;5096915;28;20454;-81
2023/06/30 02:19:31;;;;;;;3.30;3.00;;;20.30;99.90;;;;;;5096680;28;20451;-81
2023/06/30 02:21:58;;;;;;;3.07;2.63;;;20.30;99.90;;;;;;5096284;28;21002;-81
2023/06/30 02:24:24;;;;;;;2.40;2.30;;;20.20;99.90;;;;;;5096790;28;20439;-81
2023/06/30 02:26:51;;;;;;;3.17;2.97;;;20.20;99.90;;;;;;5096426;28;20962;-81
2023/06/30 02:29:18;;;;;;;4.83;3.60;;;20.20;99.90;;;;;;5096637;28;20471;-81
2023/06/30 02:31:45;;;;;;;3.93;3.53;;;20.10;99.90;;;;;;5096642;28;20440;-81
2023/06/30 02:34:12;;;;;;;3.33;2.83;;;20.10;99.90;;;;;;5096338;28;20931;-81
2023/06/30 02:36:40;;;;;;;2.50;2.40;;;20.10;99.90;;;;;;5096571;28;20444;-81
2023/06/30 02:39:06;;;;;;;3.10;2.90;;;20.10;99.90;;;;;;5096201;28;20468;-81
2023/06/30 02:41:33;;;;;;;2.27;2.17;;;20.00;99.90;;;;;;5096390;28;20483;-81
2023/06/30 02:44:00;;;;;;;3.37;3.10;;;20.00;99.90;;;;;;5096474;28;20444;-81
2023/06/30 02:46:26;;;;;;;3.27;3.00;;;20.00;99.90;;;;;;5096417;28;20454;-81
2023/06/30 02:48:53;;;;;;;2.90;2.70;;;20.00;99.90;;;;;;5095958;28;20975;-81
2023/06/30 02:51:20;;;;;;;4.30;3.13;;;20.00;99.90;;;;;;5096301;28;20460;-81
2023/06/30 02:53:48;;;;;;;4.10;3.13;;;20.10;99.90;;;;;;5095964;28;20459;-81
2023/06/30 02:56:15;;;;;;;4.40;3.70;;;20.10;99.90;;;;;;5096185;28;20489;-81
2023/06/30 02:58:41;;;;;;;5.80;3.37;;;20.10;99.90;;;;;;5096186;28;20468;-81
2023/06/30 03:01:08;;;;;;;3.90;3.43;;;20.20;99.90;;;;;;5096159;28;20446;-81
2023/06/30 03:03:35;;;;;;;3.13;2.93;;;20.20;99.90;;;;;;5094978;28;21003;-81
2023/06/30 03:06:02;;;;;;;4.00;3.60;;;20.20;99.90;;;;;;5096041;28;20458;-81
2023/06/30 03:08:29;;;;;;;4.40;2.47;;;20.20;99.90;;;;;;5095622;28;20468;-81
2023/06/30 03:10:58;;;;;;;4.77;3.60;;;20.20;99.90;;;;;;5095932;28;20447;-81
2023/06/30 03:13:24;;;;;;;4.10;3.70;;;20.20;99.90;;;;;;5095563;28;20954;-81
2023/06/30 03:15:51;;;;;;;3.90;3.47;;;20.10;99.90;;;;;;5095904;28;20463;-81
2023/06/30 03:18:18;;;;;;;8.00;3.60;;;20.10;99.90;;;;;;5095379;28;20841;-81
2023/06/30 03:20:44;;;;;;;3.57;3.17;;;20.10;99.90;;;;;;5095718;28;20448;-81
2023/06/30 03:23:13;;;;;;;3.53;3.17;;;20.10;99.90;;;;;;5095136;28;20994;-81
2023/06/30 03:25:40;;;;;;;2.73;2.53;;;20.10;99.90;;;;;;5095657;28;20444;-81
2023/06/30 03:28:08;;;;;;;7.13;3.10;;;20.00;99.90;;;;;;5095523;28;20797;-82
2023/06/30 03:30:34;;;;;;;3.30;3.00;;;20.10;99.90;;;;;;5095531;28;20451;-81
2023/06/30 03:33:01;;;;;;;3.07;2.77;;;20.00;99.90;;;;;;5095522;28;20771;-81
2023/06/30 03:35:28;;;;;;;3.03;2.83;;;20.00;99.90;;;;;;5095501;28;20452;-81
2023/06/30 03:37:54;;;;;;;3.00;2.70;;;19.90;99.90;;;;;;5095428;28;20498;-81
2023/06/30 03:40:21;;;;;;;3.03;2.83;;;19.90;99.90;;;;;;5095365;28;20451;-81
2023/06/30 03:42:48;;;;;;;5.57;3.37;;;19.90;99.90;;;;;;5095131;28;20840;-81
2023/06/30 03:45:16;;;;;;;3.43;3.10;;;19.90;99.90;;;;;;5095233;28;20830;-81
2023/06/30 03:47:43;;;;;;;3.40;3.00;;;19.90;99.90;;;;;;5094901;28;20425;-81
2023/06/30 03:50:10;;;;;;;4.70;3.50;;;19.80;99.90;;;;;;5095172;28;20440;-81
2023/06/30 03:52:37;;;;;;;3.07;2.93;;;19.80;99.90;;;;;;5095197;28;20451;-81
2023/06/30 03:55:05;;;;;;;3.73;3.33;;;19.90;99.90;;;;;;5095033;28;20450;-81
2023/06/30 03:57:31;;;;;;;6.50;3.50;;;19.90;99.90;;;;;;5094674;28;20947;-81
2023/06/30 03:59:58;;;;;;;3.10;2.90;;;19.80;99.90;;;;;;5094993;28;20448;-81
2023/06/30 04:02:26;;;;;;;3.63;3.33;;;19.80;99.90;;;;;;5094846;28;20511;-81
2023/06/30 04:04:53;;;;;;;2.87;2.67;;;19.70;99.90;;;;;;5094888;28;20812;-81
2023/06/30 04:07:20;;;;;;;9.03;3.63;;;19.70;99.90;;;;;;5095374;28;20440;-81
2023/06/30 04:09:46;;;;;;;4.33;3.00;;;19.70;99.90;;;;;;5094699;28;20495;-81
2023/06/30 04:12:13;;;;;;;3.80;3.40;;;19.70;99.90;;;;;;5094718;28;20448;-81
2023/06/30 04:14:40;;;;;;;3.57;3.27;;;19.80;99.90;;;;;;5093647;28;20448;-81
2023/06/30 04:17:07;;;;;;;3.53;3.23;;;19.80;99.90;;;;;;5094339;28;20939;-81
2023/06/30 04:19:35;;;;;;;4.37;3.80;;;19.90;99.90;;;;;;5094228;28;20982;-81
2023/06/30 04:22:01;;;;;;;3.50;3.30;;;19.80;99.90;;;;;;5094185;28;20841;-81
2023/06/30 04:24:28;;;;;;;5.87;3.20;;;19.80;99.90;;;;;;5094475;28;20443;-81
2023/06/30 04:26:55;;;;;;;5.13;3.03;;;19.90;99.90;;;;;;5094425;28;20447;-81
2023/06/30 04:29:22;;;;;;;3.20;3.00;;;20.00;99.90;;;;;;5094365;28;20456;-81
2023/06/30 04:31:49;;;;;;;3.63;3.33;;;19.90;99.90;;;;;;5094032;28;20444;-81
2023/06/30 04:34:16;;;;;;;4.07;3.70;;;20.00;99.90;;;;;;5094267;28;20452;-81
2023/06/30 04:36:44;;;;;;;5.20;3.67;;;20.00;99.90;;;;;;5094249;28;20454;-81
2023/06/30 04:39:11;;;;;;;3.50;3.20;;;20.00;99.90;;;;;;5093888;28;20999;-82
2023/06/30 04:41:37;;;;;;;4.90;3.80;;;19.90;99.90;;;;;;5094154;28;20444;-82
2023/06/30 04:44:04;;;;;;;4.40;4.00;;;19.70;99.90;;;;;;5093841;28;20490;-82
2023/06/30 04:46:31;;;;;;;6.30;3.43;;;19.60;99.90;;;;;;5093806;28;20446;-82
2023/06/30 04:49:00;;;;;;;5.40;4.13;;;19.40;99.90;;;;;;5093964;28;20468;-82
2023/06/30 04:51:27;;;;;;;6.17;3.70;;;19.20;99.90;;;;;;5093675;28;20504;-82
2023/06/30 04:53:55;;;;;;;8.60;5.17;;;19.10;99.90;;;;;;5093948;28;20451;-82
2023/06/30 04:56:22;;;;;;;5.10;3.60;;;19.10;99.90;;;;;;5093942;28;20452;-81
2023/06/30 04:58:50;;;;;;;3.83;3.50;;;18.90;99.90;;;;;;5093834;28;20482;-81
2023/06/30 05:01:17;;;;;;;9.10;4.57;;;18.90;99.90;;;;;;5093864;28;20475;-81
2023/06/30 05:03:44;;;;;;;5.50;4.50;;;18.80;99.90;;;;;;5093772;28;20471;-81
2023/06/30 05:06:11;;;;;;;5.97;4.30;;;18.70;99.90;;;;;;5093775;28;20447;-81
2023/06/30 05:08:37;;;;;;;4.60;4.20;;;18.60;99.90;;;;;;5093703;28;20464;-82
2023/06/30 05:11:06;;;;;;;4.63;4.07;;;18.50;99.90;;;;;;5093712;28;20455;-82
2023/06/30 05:13:32;;;;;;;6.10;3.83;;;18.30;99.90;;;;;;5093378;28;20939;-82
2023/06/30 05:15:59;;;;;;;4.67;3.93;;;18.20;99.90;;;;;;5093783;28;20448;-82
2023/06/30 05:18:26;;;;;;;5.87;4.93;;;18.10;99.90;;;;;;5093330;28;20471;-82
2023/06/30 05:20:52;;;;;;;5.20;4.40;;;18.00;99.90;;;;;;5093608;28;20444;-82
2023/06/30 05:23:20;;;;;;;4.17;3.87;;;18.00;99.90;;;;;;5093122;28;20484;-81
2023/06/30 05:25:46;;;;;;;4.87;3.97;;;17.90;99.90;;;;;;5093102;28;20448;-82
2023/06/30 05:28:14;;;;;;;7.07;3.90;;;17.90;99.90;;;;;;5093419;28;20481;-82
2023/06/30 05:30:41;;;;;;;8.07;4.63;;;17.90;99.90;;;;;;5093512;28;20439;-83
2023/06/30 05:33:08;;;;;;;5.93;4.03;;;17.90;99.90;;;;;;5093415;28;20448;-84
2023/06/30 05:35:35;;;;;;;6.57;4.57;;;17.80;99.90;;;;;;5093492;28;20460;-84
2023/06/30 05:38:02;;;;;;;5.13;4.03;;;17.90;99.90;;;;;;5093376;28;20460;-85
2023/06/30 05:40:29;;;;;;;7.13;3.93;;;17.80;99.90;;;;;;5093092;28;20455;-85
2023/06/30 05:42:56;;;;;;;8.93;4.90;;;17.70;99.90;;;;;;5093380;28;20483;-85
2023/06/30 05:45:25;;;;;;;9.50;4.90;;;17.70;99.90;;;;;;5094378;28;20451;-87
2023/06/30 05:47:52;;;;;;;7.97;4.03;;;17.70;99.90;;;;;;5093230;28;20466;-86
2023/06/30 05:50:21;;;;;;;6.90;4.20;;;17.70;99.90;;;;;;5093531;28;20447;-86
2023/06/30 05:52:48;;;;;;;5.37;4.20;;;17.70;99.90;;;;;;5092989;28;20931;-86
2023/06/30 05:55:15;;;;;;;6.37;5.37;;;17.70;99.90;;;;;;5093292;28;20436;-85
2023/06/30 05:57:42;;;;;;;8.13;4.90;;;17.70;99.90;;;;;;5093487;28;20443;-84
2023/06/30 06:00:10;;;;;;;12.77;4.87;;;17.80;99.90;;;;;;5093246;28;20444;-83
2023/06/30 06:02:38;;;;;;;7.30;4.17;;;17.80;99.90;;;;;;5093083;28;20882;-83
2023/06/30 06:05:05;;;;;;;9.27;4.83;;;17.70;99.90;;;;;;5093176;28;20447;-84
2023/06/30 06:07:32;;;;;;;6.07;4.27;;;17.60;99.90;;;;;;5093099;28;20433;-83
2023/06/30 06:09:59;;;;;;;4.30;3.90;;;17.50;99.90;;;;;;5093236;28;20959;-83
2023/06/30 06:12:26;;;;;;;9.03;3.67;;;17.50;99.90;;;;;;5093059;28;20447;-83
2023/06/30 06:14:52;;;;;;;6.63;3.93;;;17.50;99.90;;;;;;5093065;28;20451;-83
2023/06/30 06:17:19;;;;;;;7.40;5.10;;;17.60;99.90;;;;;;5093059;28;20448;-83
2023/06/30 06:19:47;;;;;;;6.80;4.30;;;18.00;99.90;;;;;;5092616;28;20979;-83
2023/06/30 06:22:14;;;;;;;8.00;5.00;;;17.70;99.90;;;;;;5092636;28;20476;-83
2023/06/30 06:24:41;;;;;;;6.23;4.60;;;17.80;99.90;;;;;;5092877;28;20483;-84
2023/06/30 06:27:07;;;;;;;5.17;4.03;;;17.90;99.90;;;;;;5092957;28;20444;-84
2023/06/30 06:29:34;;;;;;;6.53;4.57;;;17.90;99.90;;;;;;5092550;28;20463;-83
2023/06/30 06:32:01;;;;;;;5.97;4.63;;;18.00;99.90;;;;;;5092892;28;20432;-83
2023/06/30 06:34:28;;;;;;;8.90;5.47;;;18.10;99.90;;;;;;5092870;28;20444;-84
2023/06/30 06:36:56;;;;;;;4.93;3.87;;;18.10;99.90;;;;;;5093095;28;20452;-84
2023/06/30 06:39:22;;;;;;;7.50;4.37;;;18.10;99.90;;;;;;5096512;28;20471;-84
2023/06/30 06:41:49;;;;;;;5.97;4.10;;;18.10;99.90;;;;;;5096372;28;20447;-84
2023/06/30 06:44:16;;;;;;;11.13;5.07;;;18.20;99.90;;;;;;5096467;28;20525;-85
2023/06/30 06:46:43;;;;;;;4.43;3.93;;;18.30;99.90;;;;;;5096395;28;20432;-85
2023/06/30 06:49:10;;;;;;;7.23;4.77;;;18.20;99.90;;;;;;5096334;28;20498;-85
2023/06/30 06:51:37;;;;;;;7.13;3.60;;;18.10;99.90;;;;;;5096351;28;20847;-84
2023/06/30 06:54:05;;;;;;;6.33;4.80;;;18.00;99.90;;;;;;5096238;28;20444;-85
2023/06/30 06:56:32;;;;;;;12.23;4.70;;;18.00;99.90;;;;;;5096220;28;20447;-85
2023/06/30 06:58:58;;;;;;;11.47;4.63;;;17.90;99.90;;;;;;5096071;28;20835;-84
2023/06/30 07:01:25;;;;;;;11.10;4.90;;;17.80;99.90;;;;;;5096718;28;20455;-85
2023/06/30 07:03:52;;;;;;;8.30;5.60;;;17.80;99.90;;;;;;5095725;28;20834;-85
2023/06/30 07:06:21;;;;;;;8.70;4.27;;;17.70;99.90;;;;;;5095648;28;20838;-84
2023/06/30 07:08:48;;;;;;;10.27;5.57;;;17.60;99.90;;;;;;5095986;28;20555;-85
2023/06/30 07:11:16;;;;;;;11.43;4.67;;;17.50;99.90;;;;;;5095612;28;20460;-85
2023/06/30 07:13:43;;;;;;;4.80;4.10;;;17.50;99.90;;;;;;5095913;28;20447;-84
2023/06/30 07:16:11;;;;;;;15.53;5.80;;;17.60;99.90;;;;;;5095859;28;20444;-83
2023/06/30 07:18:38;;;;;;;9.90;4.30;;;17.70;99.90;;;;;;5095763;28;20582;-84
2023/06/30 07:21:04;;;;;;;6.90;4.70;;;17.80;99.90;;;;;;5095502;28;20451;-83
2023/06/30 07:23:31;;;;;;;8.80;3.57;;;17.70;99.90;;;;;;5095634;28;20487;-85
2023/06/30 07:25:58;;;;;;;7.13;4.07;;;17.70;99.90;;;;;;5095960;28;20454;-84
2023/06/30 07:28:26;;;;;;;5.50;3.87;;;17.70;99.90;;;;;;5095544;28;20479;-84
2023/06/30 07:30:53;;;;;;;8.87;4.20;;;17.70;99.90;;;;;;5095583;28;20452;-85
2023/06/30 07:33:19;;;;;;;9.83;3.73;;;17.80;99.90;;;;;;5095257;28;20436;-84
2023/06/30 07:35:46;;;;;;;10.50;5.33;;;17.90;99.90;;;;;;5095431;28;20452;-85
2023/06/30 07:38:13;;;;;;;8.13;4.33;;;17.90;99.90;;;;;;5095379;28;20468;-85
2023/06/30 07:40:40;;;;;;;9.70;4.27;;;17.90;99.90;;;;;;5095062;28;20967;-85
2023/06/30 07:43:06;;;;;;;7.83;4.17;;;17.90;99.90;;;;;;5094958;28;20432;-82
2023/06/30 07:45:34;;;;;;;10.70;3.60;;;17.90;99.90;;;;;;5095176;28;20455;-82
2023/06/30 07:48:01;;;;;;;6.57;3.77;;;17.70;99.90;;;;;;5094607;28;20843;-82
2023/06/30 07:50:28;;;;;;;11.90;4.40;;;17.70;99.90;;;;;;5095115;28;20459;-82
2023/06/30 07:52:55;;;;;;;5.80;3.40;;;17.60;99.90;;;;;;5095063;28;20440;-82
2023/06/30 07:55:22;;;;;;;13.93;4.90;;;17.50;99.90;;;;;;5095059;28;20812;-81
2023/06/30 07:57:51;;;;;;;5.43;3.20;;;17.50;99.90;;;;;;5094642;28;20452;-82
2023/06/30 08:00:18;;;;;;;6.73;3.50;;;17.50;99.90;;;;;;5095006;28;20456;-81
2023/06/30 08:02:47;;;;;;;5.97;3.20;;;17.60;99.90;;;;;;5094916;28;20440;-81
2023/06/30 08:05:14;;;;;;;10.30;3.87;;;17.60;99.90;;;;;;5094849;28;20486;-82
2023/06/30 08:07:40;;;;;;;8.33;3.60;;;17.60;99.90;;;;;;5094930;28;20443;-82
2023/06/30 08:10:08;;;;;;;9.87;4.40;;;17.60;99.90;;;;;;5094860;28;20440;-82
2023/06/30 08:12:35;;;;;;;6.30;3.67;;;17.70;99.90;;;;;;5094785;28;20440;-82
2023/06/30 08:15:01;;;;;;;7.50;4.40;;;17.70;99.90;;;;;;5094353;28;20932;-82
2023/06/30 08:17:28;;;;;;;10.07;5.63;;;17.70;99.90;;;;;;5094765;28;20452;-82
2023/06/30 08:19:56;;;;;;;6.40;3.70;;;17.80;99.90;;;;;;5094645;28;20790;-82
2023/06/30 08:22:23;;;;;;;13.23;5.13;;;17.80;99.90;;;;;;5094116;28;20991;-82
2023/06/30 08:24:50;;;;;;;16.20;5.83;;;17.80;99.90;;;;;;5094404;28;20488;-82
2023/06/30 08:27:17;;;;;;;8.67;4.57;;;17.80;99.90;;;;;;5094466;28;20444;-82
2023/06/30 08:29:44;;;;;;;7.37;4.37;;;17.90;99.90;;;;;;5094321;28;20468;-82
2023/06/30 08:32:11;;;;;;;11.57;4.63;;;17.80;99.90;;;;;;5094347;28;20448;-81
2023/06/30 08:34:38;;;;;;;10.50;5.20;;;17.80;99.90;;;;;;5094374;28;20428;-81
2023/06/30 08:37:06;;;;;;;10.33;5.63;;;17.90;99.90;;;;;;5094245;28;20527;-81
2023/06/30 08:39:33;;;;;;;16.00;5.27;;;17.90;99.90;;;;;;5094192;28;20472;-81
2023/06/30 08:42:01;;;;;;;10.30;4.93;;;17.90;99.90;;;;;;5094248;28;20451;-82
2023/06/30 08:44:27;;;;;;;7.23;4.10;;;17.90;99.90;;;;;;5094136;28;20480;-82
2023/06/30 08:46:55;;;;;;;10.37;5.37;;;17.90;99.90;;;;;;5094136;28;20455;-82
2023/06/30 08:49:23;;;;;;;9.57;4.97;;;17.90;99.90;;;;;;5094059;28;20475;-82
2023/06/30 08:51:54;;;;;;;8.03;4.03;;;17.90;99.90;;;;;;5093996;28;20448;-82
2023/06/30 08:54:22;;;;;;;6.13;3.23;;;17.90;99.90;;;;;;5094733;28;20435;-82
2023/06/30 08:56:49;;;;;;;7.10;4.67;;;17.90;99.90;;;;;;5094011;28;20444;-82
2023/06/30 08:59:16;;;;;;;9.80;4.57;;;17.90;99.90;;;;;;5093770;28;20463;-83
2023/06/30 09:01:44;;;;;;;6.43;3.97;;;17.90;99.90;;;;;;5093149;28;20451;-82
2023/06/30 09:04:12;;;;;;;9.50;3.57;;;17.90;99.90;;;;;;5094070;28;20472;-82
2023/06/30 09:06:43;;;;;;;7.80;3.60;;;17.90;99.90;;;;;;5093802;28;20811;-82
2023/06/30 09:09:12;;;;;;;9.87;5.00;;;17.90;99.90;;;;;;5094436;28;20483;-82
2023/06/30 09:11:41;;;;;;;6.43;4.13;;;17.90;99.90;;;;;;5093477;28;21004;-82
2023/06/30 09:14:09;;;;;;;6.53;3.37;;;17.90;99.90;;;;;;5093679;28;20440;-82
2023/06/30 09:16:36;;;;;;;2.30;2.20;;;17.90;99.90;;;;;;5093842;28;20451;-81
2023/06/30 09:19:04;;;;;;;9.20;3.20;;;18.00;99.90;;;;;;5093316;28;20560;-82
2023/06/30 09:21:31;;;;;;;8.67;4.23;;;18.00;99.90;;;;;;5093366;28;20483;-81
2023/06/30 09:23:57;;;;;;;9.00;4.40;;;18.00;99.90;;;;;;5093883;28;20460;-81
2023/06/30 09:26:24;;;;;;;6.17;4.00;;;18.00;99.90;;;;;;5093093;28;20942;-81
2023/06/30 09:28:54;;;;;;;4.90;3.17;;;18.10;99.90;;;;;;5093419;28;20463;-81
2023/06/30 09:31:28;;;;;;;4.00;2.57;;;18.20;99.90;;;;;;5094296;28;20428;-81
2023/06/30 09:34:08;;;;;;;14.17;3.07;;;18.30;99.90;;;;;;5093671;28;20429;-82
2023/06/30 09:36:35;;;;;;;4.80;2.93;;;18.40;99.90;;;;;;5093482;28;20432;-82
2023/06/30 09:39:02;;;;;;;4.37;2.07;;;18.40;99.90;;;;;;5093378;28;20455;-81
2023/06/30 09:41:30;;;;;;;5.20;3.07;;;18.50;99.90;;;;;;5093143;28;20981;-82
2023/06/30 09:43:59;;;;;;;4.50;2.70;;;18.50;99.90;;;;;;5093424;28;20876;-82
2023/06/30 09:46:27;;;;;;;6.67;2.43;;;18.60;99.90;;;;;;5093003;28;20971;-82
2023/06/30 09:48:55;;;;;;;5.10;2.77;;;18.60;99.90;;;;;;5092968;28;20983;-81
2023/06/30 09:51:22;;;;;;;2.93;2.20;;;18.60;99.90;;;;;;5093349;28;20863;-82
2023/06/30 09:53:52;;;;;;;5.17;2.13;;;18.70;99.90;;;;;;5093337;28;20452;-82
2023/06/30 09:56:22;;;;;;;3.07;1.93;;;18.70;99.90;;;;;;5093068;28;20484;-82
2023/06/30 09:58:50;;;;;;;6.00;3.07;;;18.70;99.90;;;;;;5093136;28;20479;-82
2023/06/30 10:01:23;;;;;;;2.93;2.17;;;18.60;99.90;;;;;;5092855;28;20444;-83
2023/06/30 10:03:50;;;;;;;4.30;2.20;;;18.70;99.90;;;;;;5093181;28;20547;-83
2023/06/30 10:06:18;;;;;;;5.37;2.77;;;18.70;99.90;;;;;;5092824;28;20455;-83
2023/06/30 10:08:46;;;;;;;6.07;3.33;;;18.60;99.90;;;;;;5092874;28;20878;-83
2023/06/30 10:11:13;;;;;;;9.50;3.27;;;18.60;99.90;;;;;;5092834;28;20970;-83
2023/06/30 10:13:42;;;;;;;7.33;4.03;;;18.60;99.90;;;;;;5096223;28;20447;-83
2023/06/30 10:16:10;;;;;;;3.50;2.70;;;18.60;99.90;;;;;;5096881;28;20505;-83
2023/06/30 10:18:45;;;;;;;3.80;3.30;;;18.60;99.90;;;;;;5096947;28;20470;-83
2023/06/30 10:21:12;;;;;;;7.20;3.97;;;18.60;99.90;;;;;;5096913;28;20455;-83
2023/06/30 10:23:42;;;;;;;7.03;3.90;;;18.60;99.90;;;;;;5096644;28;20408;-83
2023/06/30 10:26:12;;;;;;;6.60;3.40;;;18.50;99.90;;;;;;5097102;28;20444;-83
2023/06/30 10:28:39;;;;;;;7.40;3.80;;;18.50;99.90;;;;;;5096683;28;20487;-84
2023/06/30 10:31:06;;;;;;;5.93;3.50;;;18.50;99.90;;;;;;5096615;28;20466;-84
2023/06/30 10:33:33;;;;;;;18.33;3.63;;;18.50;99.90;;;;;;5096974;28;20451;-84
2023/06/30 10:36:02;;;;;;;10.33;4.70;;;18.60;99.90;;;;;;5096652;28;20455;-84
2023/06/30 10:38:29;;;;;;;8.07;4.23;;;18.70;99.90;;;;;;5096550;28;20463;-84
2023/06/30 10:41:14;;;;;;;6.33;4.23;;;18.70;99.90;;;;;;5096260;28;20947;-84
2023/06/30 10:44:06;;;;;;;6.37;4.67;;;18.70;99.90;;;;;;5097298;28;20825;-85
2023/06/30 10:46:47;;;;;;;11.17;4.73;;;18.70;99.90;;;;;;5092902;28;20447;-85
2023/06/30 10:49:30;;;;;;;6.23;4.20;;;18.80;99.90;;;;;;5096402;28;20532;-85
2023/06/30 10:52:00;;;;;;;5.43;3.53;;;18.80;99.90;;;;;;5096425;28;20432;-85
2023/06/30 10:54:29;;;;;;;6.33;3.93;;;18.80;99.90;;;;;;5097438;28;20439;-85
2023/06/30 10:57:08;;;;;;;7.80;4.80;;;18.90;99.90;;;;;;5096251;28;20438;-85
2023/06/30 10:59:41;;;;;;;11.80;5.43;;;18.90;99.90;;;;;;5095886;28;20995;-85
2023/06/30 11:02:12;;;;;;;12.17;4.70;;;18.80;99.90;;;;;;5096184;28;20427;-85
2023/06/30 11:04:40;;;;;;;9.93;5.00;;;18.80;99.90;;;;;;5096014;28;20593;-86
2023/06/30 11:07:10;;;;;;;8.70;4.30;;;18.90;99.90;;;;;;5095814;28;20476;-86
2023/06/30 11:09:59;;;;;;;7.87;4.80;;;18.90;99.90;;;;;;5096284;28;20556;-86
2023/06/30 11:12:27;;;;;;;11.77;4.83;;;19.00;99.90;;;;;;5095731;28;20448;-85
2023/06/30 11:14:56;;;;;;;9.87;5.50;;;19.00;99.90;;;;;;5095679;28;20480;-86
2023/06/30 11:17:23;;;;;;;10.90;5.80;;;19.10;99.90;;;;;;5096096;28;20432;-85
2023/06/30 11:20:08;;;;;;;16.60;5.47;;;19.20;99.90;;;;;;5096000;28;20475;-87
2023/06/30 11:22:37;;;;;;;12.30;5.50;;;19.40;99.90;;;;;;5095251;28;20483;-86
2023/06/30 11:25:05;;;;;;;9.83;5.60;;;19.50;99.90;;;;;;5095536;28;20479;-87
2023/06/30 11:27:33;;;;;;;11.30;5.90;;;19.60;99.90;;;;;;5095861;28;20475;-87
2023/06/30 11:30:01;;;;;;;13.00;6.00;;;19.80;99.90;;;;;;5095886;28;20440;-87
2023/06/30 11:32:29;;;;;;;10.10;4.70;;;20.00;99.90;;;;;;5095732;28;20970;-88
2023/06/30 11:34:57;;;;;;;13.33;7.47;;;20.10;99.90;;;;;;5095860;28;20826;-88
2023/06/30 11:37:24;;;;;;;12.37;7.20;;;20.10;99.90;;;;;;5095523;28;20448;-86
2023/06/30 11:39:52;;;;;;;15.70;6.90;;;20.20;99.90;;;;;;5095453;28;20459;-88
2023/06/30 11:42:20;;;;;;;13.97;5.73;;;20.20;99.90;;;;;;5095456;28;20795;-87
2023/06/30 11:44:48;;;;;;;10.37;6.17;;;20.30;99.90;;;;;;5095495;28;20475;-88
2023/06/30 11:47:15;;;;;;;18.03;8.03;;;20.20;99.90;;;;;;5095606;28;20464;-88
2023/06/30 11:49:42;;;;;;;15.90;6.17;;;20.10;99.90;;;;;;5095627;28;20460;-87
2023/06/30 11:52:09;;;;;;;15.10;5.90;;;20.00;99.90;;;;;;5095390;28;20915;-87
2023/06/30 11:54:37;;;;;;;11.23;5.97;;;20.10;99.90;;;;;;5095570;28;20825;-87
2023/06/30 11:57:05;;;;;;;10.90;6.03;;;20.10;99.90;;;;;;5095126;28;20971;-87
2023/06/30 11:59:32;;;;;;;10.97;5.70;;;20.10;99.90;;;;;;5095212;28;20471;-88
2023/06/30 12:02:00;;;;;;;12.50;5.40;;;20.10;99.90;;;;;;5095260;28;20451;-87
2023/06/30 12:04:34;;;;;;;12.57;5.40;;;20.00;99.90;;;;;;5094830;28;20447;-87
2023/06/30 12:07:03;;;;;;;15.07;6.20;;;20.10;99.90;;;;;;5095404;28;20439;-88
2023/06/30 12:09:29;;;;;;;12.03;5.93;;;20.10;99.90;;;;;;5094711;28;20476;-89
2023/06/30 12:11:56;;;;;;;15.33;6.67;;;20.10;99.90;;;;;;5095216;28;20501;-86
2023/06/30 12:14:26;;;;;;;11.70;5.77;;;20.10;99.90;;;;;;5094974;28;20447;-88
2023/06/30 12:16:53;;;;;;;9.87;5.33;;;20.10;99.90;;;;;;5095483;28;20822;-88
2023/06/30 12:19:24;;;;;;;10.80;6.13;;;20.10;99.90;;;;;;5094969;28;20495;-88
2023/06/30 12:21:51;;;;;;;10.87;5.90;;;20.20;99.90;;;;;;5094788;28;20889;-89
2023/06/30 12:24:19;;;;;;;15.47;6.30;;;20.20;99.90;;;;;;5094734;28;20432;-88
2023/06/30 12:26:48;;;;;;;19.13;6.80;;;20.40;99.90;;;;;;5094953;28;20501;-87
2023/06/30 12:29:30;;;;;;;12.00;5.57;;;20.50;99.90;;;;;;5090999;27;20969;-88
2023/06/30 12:31:58;;;;;;;10.10;5.70;;;20.50;99.90;;;;;;5091507;28;20436;-87
2023/06/30 12:34:31;;;;;;;14.23;5.60;;;20.70;99.90;;;;;;5091063;28;20959;-87
2023/06/30 12:36:58;;;;;;;12.33;5.07;;;20.70;99.90;;;;;;5091263;28;20444;-88
2023/06/30 12:39:25;;;;;;;11.97;5.80;;;20.70;99.90;;;;;;5090947;28;20460;-87
2023/06/30 12:41:52;;;;;;;11.77;6.43;;;20.70;99.90;;;;;;5091124;28;20453;-87
2023/06/30 12:44:18;;;;;;;10.60;6.73;;;20.70;99.90;;;;;;5090992;28;20452;-88
2023/06/30 12:46:58;;;;;;;10.47;6.23;;;20.60;99.90;;;;;;5090990;28;20962;-87
2023/06/30 12:49:28;;;;;;;11.67;6.53;;;20.60;99.90;;;;;;5091062;28;20897;-88